Time;durP1;ratioP1;P1;durP2;ratioP2;P2;SDS_P1;SDS_P2;PMS_P1;PMS_P2;Temp;Humidity;BMP_temperature;BMP_pressure;BME280_temperature;BME280_humidity;BME280_pressure;Samples;Min_cycle;Max_cycle;Signal;HPM_P1;HPM_P2
2022/05/15 00:04:25;;;;;;;4.07;1.10;;;18.30;57.50;;;;;;20860976;28;20112;-76
2022/05/15 00:14:26;;;;;;;5.82;1.20;;;18.20;57.40;;;;;;20861174;28;20607;-77
2022/05/15 00:24:28;;;;;;;3.70;1.23;;;18.20;57.40;;;;;;20892368;28;20115;-77
2022/05/15 00:34:28;;;;;;;2.63;1.15;;;18.20;57.30;;;;;;20841937;28;20039;-77
2022/05/15 00:44:29;;;;;;;2.25;1.17;;;18.20;57.40;;;;;;20841519;28;20056;-77
2022/05/15 00:54:40;;;;;;;2.88;1.00;;;18.20;57.30;;;;;;20859290;28;20443;-77
2022/05/15 01:04:41;;;;;;;4.07;1.60;;;18.10;57.20;;;;;;20856856;28;20045;-77
2022/05/15 01:14:42;;;;;;;2.40;0.95;;;18.10;57.20;;;;;;20858563;28;20051;-79
2022/05/15 01:24:44;;;;;;;2.28;1.02;;;18.10;57.10;;;;;;20840465;28;20090;-77
2022/05/15 01:34:46;;;;;;;2.55;1.10;;;18.10;57.10;;;;;;20857360;28;20040;-77
2022/05/15 01:44:47;;;;;;;5.22;1.40;;;18.10;57.10;;;;;;20839438;28;20037;-76
2022/05/15 01:54:48;;;;;;;2.53;1.13;;;18.00;57.00;;;;;;20872880;28;20028;-77
2022/05/15 02:04:49;;;;;;;4.35;0.95;;;18.00;57.00;;;;;;20868787;28;20029;-78
2022/05/15 02:14:50;;;;;;;2.77;0.67;;;18.00;57.00;;;;;;20885706;28;20075;-76
2022/05/15 02:24:51;;;;;;;2.97;1.20;;;18.00;56.90;;;;;;20852070;28;20349;-77
2022/05/15 02:34:51;;;;;;;4.95;1.15;;;18.00;56.90;;;;;;20850911;28;20037;-77
2022/05/15 02:44:52;;;;;;;1.88;0.95;;;17.90;56.80;;;;;;20850359;28;20041;-78
2022/05/15 02:54:54;;;;;;;2.85;1.10;;;17.90;56.80;;;;;;20865602;28;20033;-76
2022/05/15 03:04:54;;;;;;;5.00;1.43;;;17.90;56.70;;;;;;20865895;28;20419;-77
2022/05/15 03:14:55;;;;;;;1.52;1.00;;;17.90;56.70;;;;;;20863189;28;20341;-77
2022/05/15 03:24:56;;;;;;;2.33;1.40;;;17.90;56.70;;;;;;20862925;28;20039;-77
2022/05/15 03:34:56;;;;;;;4.25;1.48;;;17.80;56.50;;;;;;20862106;28;20120;-76
2022/05/15 03:44:57;;;;;;;3.15;0.77;;;17.80;56.40;;;;;;20862129;28;20029;-77
2022/05/15 03:54:58;;;;;;;3.88;1.58;;;17.80;56.30;;;;;;20861860;28;20064;-76
2022/05/15 04:04:58;;;;;;;1.67;0.80;;;17.80;56.30;;;;;;20893803;28;20124;-77
2022/05/15 04:14:59;;;;;;;3.10;1.20;;;17.80;56.40;;;;;;20876533;28;20295;-77
2022/05/15 04:24:59;;;;;;;1.58;1.15;;;17.70;56.20;;;;;;20873667;28;20029;-76
2022/05/15 04:35:00;;;;;;;6.75;1.92;;;17.80;56.20;;;;;;20889885;28;20057;-76
2022/05/15 04:45:01;;;;;;;2.55;1.00;;;17.70;56.10;;;;;;20857233;28;20035;-76
2022/05/15 04:55:01;;;;;;;2.25;1.13;;;17.70;56.10;;;;;;20856787;28;20151;-77
2022/05/15 05:05:02;;;;;;;4.25;1.00;;;17.70;56.10;;;;;;20856844;28;20461;-77
2022/05/15 05:15:04;;;;;;;2.67;1.13;;;17.70;56.20;;;;;;20872133;28;20037;-77
2022/05/15 05:25:05;;;;;;;3.08;1.10;;;17.70;56.20;;;;;;20873093;28;20102;-76
2022/05/15 05:35:06;;;;;;;3.40;1.15;;;17.70;56.30;;;;;;20864153;28;20029;-77
2022/05/15 05:45:08;;;;;;;3.47;1.13;;;17.70;56.30;;;;;;20887756;28;20514;-77
2022/05/15 05:55:10;;;;;;;3.15;1.20;;;17.70;57.00;;;;;;20885751;28;20043;-77
2022/05/15 06:05:11;;;;;;;1.67;1.30;;;17.80;56.50;;;;;;20883743;28;20080;-75
2022/05/15 06:15:11;;;;;;;1.55;0.80;;;17.80;56.60;;;;;;20883680;28;20123;-79
2022/05/15 06:25:12;;;;;;;1.30;0.70;;;17.80;56.60;;;;;;20878344;28;20037;-83
2022/05/15 06:35:13;;;;;;;1.83;0.88;;;17.80;56.70;;;;;;20865461;28;20025;-78
2022/05/15 06:45:14;;;;;;;1.77;0.93;;;17.90;56.70;;;;;;20852077;28;20041;-76
2022/05/15 06:55:16;;;;;;;1.88;0.98;;;17.90;56.80;;;;;;20898465;28;20041;-78
2022/05/15 07:05:24;;;;;;;1.98;0.47;;;17.90;56.90;;;;;;20865488;28;20533;-75
2022/05/15 07:15:24;;;;;;;1.92;0.88;;;18.00;57.10;;;;;;21201055;22;20057;-73
2022/05/15 07:25:25;;;;;;;2.65;0.88;;;17.90;57.10;;;;;;20778583;28;20184;-71
2022/05/15 07:35:26;;;;;;;2.40;0.90;;;18.00;57.10;;;;;;20791540;28;20160;-73
2022/05/15 07:45:26;;;;;;;2.78;0.80;;;18.00;57.10;;;;;;20809676;28;20128;-70
2022/05/15 07:55:28;;;;;;;2.03;0.65;;;18.00;57.10;;;;;;20775812;28;20371;-71
2022/05/15 08:15:50;;;;;;;6.15;1.98;;;18.10;57.10;;;;;;20751520;28;20132;-73
2022/05/15 08:25:50;;;;;;;13.65;1.90;;;18.10;56.70;;;;;;20790313;28;20041;-76
2022/05/15 08:35:51;;;;;;;6.03;1.55;;;18.20;56.20;;;;;;20816224;28;20060;-75
2022/05/15 08:46:05;;;;;;;8.13;1.15;;;18.20;55.80;;;;;;20799017;28;20047;-77
2022/05/15 08:56:07;;;;;;;6.63;1.30;;;18.30;55.90;;;;;;20774235;28;20030;-75
2022/05/15 09:06:24;;;;;;;6.93;1.73;;;18.30;56.10;;;;;;20776227;28;20492;-76
2022/05/15 09:16:25;;;;;;;4.78;1.77;;;18.30;55.90;;;;;;20791954;28;20070;-84
2022/05/15 09:26:28;;;;;;;7.07;2.60;;;18.30;55.40;;;;;;20789059;28;20052;-81
2022/05/15 09:36:39;;;;;;;10.77;1.45;;;18.30;55.50;;;;;;20794420;28;20041;-75
2022/05/15 09:46:41;;;;;;;2.78;0.93;;;18.30;55.70;;;;;;20768955;28;20034;-73
2022/05/15 09:56:41;;;;;;;6.85;1.60;;;18.30;55.80;;;;;;20767026;28;20041;-73
2022/05/15 10:06:50;;;;;;;3.75;1.10;;;18.30;55.90;;;;;;20799578;28;20037;-78
2022/05/15 10:16:53;;;;;;;1.25;1.00;;;18.30;56.00;;;;;;20867866;28;20028;-80
2022/05/15 10:27:06;;;;;;;4.82;1.40;;;18.30;56.30;;;;;;20845922;28;20522;-77
2022/05/15 10:37:44;;;;;;;2.90;0.93;;;18.30;56.40;;;;;;20877721;28;20033;-73
2022/05/15 10:48:12;;;;;;;2.17;1.05;;;18.30;56.50;;;;;;20809605;28;20539;-73
2022/05/15 10:58:18;;;;;;;2.60;0.80;;;18.30;56.60;;;;;;20798335;28;20029;-75
2022/05/15 11:08:21;;;;;;;6.47;1.52;;;18.30;56.60;;;;;;20810515;28;20041;-73
2022/05/15 11:18:28;;;;;;;1.65;1.10;;;18.40;56.10;;;;;;20827610;28;20029;-72
2022/05/15 11:28:36;;;;;;;2.83;0.82;;;18.50;55.10;;;;;;20826188;28;20412;-76
2022/05/15 11:39:19;;;;;;;4.57;0.98;;;18.50;54.50;;;;;;20771543;28;20082;-75
2022/05/15 11:49:34;;;;;;;1.88;0.73;;;18.50;55.20;;;;;;20694470;28;20050;-78
2022/05/15 11:59:54;;;;;;;3.50;0.95;;;18.50;55.70;;;;;;20691466;28;20030;-77
2022/05/15 12:09:55;;;;;;;4.07;1.02;;;18.50;55.90;;;;;;20632307;28;20073;-75
2022/05/15 12:20:03;;;;;;;1.58;0.55;;;18.50;56.10;;;;;;20724252;28;20030;-74
2022/05/15 12:30:09;;;;;;;4.35;1.02;;;18.50;56.40;;;;;;20689704;28;20037;-73
2022/05/15 12:40:10;;;;;;;3.72;0.80;;;18.50;56.50;;;;;;20772596;28;20044;-74
2022/05/15 12:50:18;;;;;;;2.53;0.57;;;18.50;56.60;;;;;;20788924;28;20037;-73
2022/05/15 13:00:30;;;;;;;0.73;0.50;;;18.60;56.50;;;;;;20788493;28;20065;-73
2022/05/15 13:10:32;;;;;;;2.20;0.75;;;18.60;56.70;;;;;;20771455;28;20156;-72
2022/05/15 13:20:36;;;;;;;2.88;0.50;;;18.60;56.90;;;;;;20804313;28;20111;-72
2022/05/15 13:30:36;;;;;;;1.60;0.50;;;18.70;57.10;;;;;;20804590;28;20096;-73
2022/05/15 13:50:58;;;;;;;1.83;0.47;;;18.80;56.60;;;;;;20805401;28;20284;-74
2022/05/15 14:01:06;;;;;;;0.85;0.50;;;18.90;56.70;;;;;;20743290;28;20561;-75
2022/05/15 14:11:07;;;;;;;1.45;0.50;;;19.10;56.80;;;;;;20719393;28;20052;-76
2022/05/15 14:21:29;;;;;;;1.07;0.37;;;19.20;56.70;;;;;;20818590;28;20051;-78
2022/05/15 14:31:37;;;;;;;0.73;0.40;;;19.30;56.50;;;;;;20866346;28;20037;-76
2022/05/15 14:41:38;;;;;;;2.67;0.82;;;19.40;56.50;;;;;;20791399;28;20045;-78
2022/05/15 14:51:40;;;;;;;0.73;0.35;;;19.50;56.50;;;;;;20796226;28;20185;-77
2022/05/15 15:01:41;;;;;;;0.57;0.30;;;19.50;56.30;;;;;;20779027;28;20061;-75
2022/05/15 15:12:00;;;;;;;1.70;0.38;;;19.60;56.30;;;;;;20778755;28;20482;-77
2022/05/15 15:22:01;;;;;;;1.23;0.45;;;19.70;56.40;;;;;;20704911;28;20049;-79
2022/05/15 15:32:01;;;;;;;1.67;0.63;;;19.70;56.30;;;;;;20697721;28;20370;-77
2022/05/15 15:42:03;;;;;;;1.67;0.45;;;19.80;56.20;;;;;;20810787;28;20409;-81
2022/05/15 15:52:04;;;;;;;1.75;0.93;;;19.90;56.30;;;;;;20786149;28;20041;-78
2022/05/15 16:02:05;;;;;;;1.15;0.57;;;20.00;56.20;;;;;;20810873;28;20121;-72
2022/05/15 16:12:06;;;;;;;2.95;0.77;;;20.00;56.30;;;;;;20758651;28;20128;-74
2022/05/15 16:22:08;;;;;;;1.58;0.57;;;20.00;56.40;;;;;;20771937;28;20045;-74
2022/05/15 16:32:08;;;;;;;0.95;0.52;;;20.00;56.40;;;;;;20780521;28;20029;-75
2022/05/15 16:42:11;;;;;;;1.20;0.55;;;20.00;56.30;;;;;;20813373;28;20091;-78
2022/05/15 16:52:11;;;;;;;0.73;0.40;;;20.10;56.30;;;;;;20765064;28;20076;-77
2022/05/15 17:02:12;;;;;;;1.07;0.40;;;20.20;56.30;;;;;;20768089;28;20046;-78
2022/05/15 17:12:12;;;;;;;1.42;0.50;;;20.20;56.20;;;;;;20785852;28;20284;-78
2022/05/15 17:22:13;;;;;;;4.50;0.40;;;20.20;56.10;;;;;;20752030;28;20046;-74
2022/05/15 17:42:34;;;;;;;8.10;1.45;;;20.30;56.20;;;;;;20817657;28;20045;-80
2022/05/15 17:52:34;;;;;;;4.03;0.95;;;20.20;55.90;;;;;;20766556;28;20041;-76
2022/05/15 18:02:35;;;;;;;1.80;0.95;;;20.20;56.10;;;;;;20718137;28;20401;-75
2022/05/15 18:12:36;;;;;;;1.30;0.68;;;20.10;56.40;;;;;;20801673;28;20147;-72
2022/05/15 18:22:36;;;;;;;1.73;0.70;;;20.00;56.50;;;;;;20792211;28;20492;-72
2022/05/15 18:32:37;;;;;;;1.05;0.65;;;19.90;56.80;;;;;;20731184;28;20160;-73
2022/05/15 18:42:40;;;;;;;1.92;0.85;;;19.90;56.90;;;;;;20713726;28;20037;-77
2022/05/15 19:03:00;;;;;;;1.40;0.70;;;19.80;57.20;;;;;;20707727;28;20042;-78
2022/05/15 19:13:01;;;;;;;1.08;0.60;;;19.70;57.20;;;;;;20775255;28;20044;-80
2022/05/15 19:23:02;;;;;;;2.30;0.57;;;19.60;57.20;;;;;;20788523;28;20046;-79
2022/05/15 19:33:03;;;;;;;1.65;0.40;;;19.60;57.40;;;;;;20727108;28;20062;-79
2022/05/15 19:43:05;;;;;;;0.77;0.40;;;19.60;57.50;;;;;;20772496;28;20088;-80
2022/05/15 19:53:06;;;;;;;1.50;0.45;;;19.50;57.60;;;;;;20742208;28;20030;-82
2022/05/15 20:03:07;;;;;;;0.60;0.43;;;19.50;57.60;;;;;;20709203;28;20034;-79
2022/05/15 20:13:07;;;;;;;1.70;0.60;;;19.40;57.60;;;;;;20743172;28;20044;-81
2022/05/15 20:23:08;;;;;;;1.95;0.40;;;19.40;57.70;;;;;;20726784;28;20518;-81
2022/05/15 20:33:09;;;;;;;0.50;0.45;;;19.40;57.70;;;;;;20725355;28;20041;-82
2022/05/15 20:43:09;;;;;;;3.13;0.73;;;19.40;57.70;;;;;;20741128;28;20038;-81
2022/05/15 20:53:10;;;;;;;3.03;0.45;;;19.40;57.80;;;;;;20724699;28;20121;-81
2022/05/15 21:03:10;;;;;;;0.93;0.52;;;19.30;57.70;;;;;;20723495;28;20038;-80
2022/05/15 21:13:11;;;;;;;1.60;0.60;;;19.30;57.60;;;;;;20723878;28;20034;-81
2022/05/15 21:23:12;;;;;;;1.83;0.60;;;19.30;57.60;;;;;;20723070;28;20037;-81
2022/05/15 21:33:12;;;;;;;2.72;0.30;;;19.20;57.60;;;;;;20723537;28;20033;-82
2022/05/15 21:43:32;;;;;;;1.73;0.70;;;19.20;57.60;;;;;;20739545;28;20509;-82
2022/05/15 21:53:32;;;;;;;1.42;0.70;;;19.20;57.60;;;;;;20725544;28;20034;-82
2022/05/15 22:03:35;;;;;;;0.47;0.47;;;19.20;57.60;;;;;;20722473;28;20048;-81
2022/05/15 22:13:35;;;;;;;0.70;0.43;;;19.10;57.50;;;;;;20723891;28;20040;-81
2022/05/15 22:23:37;;;;;;;0.52;0.45;;;19.10;57.50;;;;;;20751653;28;20092;-81
2022/05/15 22:33:38;;;;;;;0.55;0.50;;;19.10;57.40;;;;;;20734822;28;20030;-82
2022/05/15 22:43:38;;;;;;;0.75;0.38;;;19.10;57.40;;;;;;20733788;28;20033;-81
2022/05/15 22:53:40;;;;;;;0.77;0.40;;;19.10;57.40;;;;;;20749885;28;20097;-83
2022/05/15 23:03:41;;;;;;;0.73;0.40;;;19.10;57.30;;;;;;20733626;28;20042;-83
2022/05/15 23:13:41;;;;;;;0.80;0.40;;;19.00;57.30;;;;;;20748162;28;20080;-82
2022/05/15 23:23:42;;;;;;;1.23;0.43;;;19.00;57.40;;;;;;20730932;28;20103;-81
2022/05/15 23:33:43;;;;;;;0.93;0.50;;;19.00;57.50;;;;;;20746216;28;20034;-81
2022/05/15 23:43:44;;;;;;;0.98;0.40;;;19.00;57.60;;;;;;20712994;28;20300;-82
2022/05/15 23:53:45;;;;;;;0.98;0.45;;;19.00;57.60;;;;;;20745440;28;20237;-82
